sensor_id;sensor_type;location;lat;lon;timestamp;pressure;altitude;pressure_sealevel;temperature
19948;BMP180;10135;50.702;7.276;2023-05-10T05:01:08;98803.00;;;17.80
19948;BMP180;10135;50.702;7.276;2023-05-10T05:03:10;98804.00;;;17.80
19948;BMP180;10135;50.702;7.276;2023-05-10T05:05:12;98802.00;;;17.80
19948;BMP180;10135;50.702;7.276;2023-05-10T05:07:12;98807.00;;;17.80
19948;BMP180;10135;50.702;7.276;2023-05-10T05:09:13;98806.00;;;17.90
19948;BMP180;10135;50.702;7.276;2023-05-10T05:11:14;98813.00;;;17.90
19948;BMP180;10135;50.702;7.276;2023-05-10T05:13:14;98813.00;;;17.90
19948;BMP180;10135;50.702;7.276;2023-05-10T05:15:15;98814.00;;;17.90
19948;BMP180;10135;50.702;7.276;2023-05-10T05:17:17;98821.00;;;17.90
19948;BMP180;10135;50.702;7.276;2023-05-10T05:19:17;98828.00;;;18.00
19948;BMP180;10135;50.702;7.276;2023-05-10T05:21:19;98826.00;;;18.00
19948;BMP180;10135;50.702;7.276;2023-05-10T05:23:20;98826.00;;;18.00
19948;BMP180;10135;50.702;7.276;2023-05-10T05:25:21;98827.00;;;18.00
19948;BMP180;10135;50.702;7.276;2023-05-10T05:27:22;98829.00;;;18.00
19948;BMP180;10135;50.702;7.276;2023-05-10T05:29:24;98826.00;;;18.00
19948;BMP180;10135;50.702;7.276;2023-05-10T05:31:25;98828.00;;;18.00
19948;BMP180;10135;50.702;7.276;2023-05-10T05:33:25;98829.00;;;18.00
19948;BMP180;10135;50.702;7.276;2023-05-10T05:35:26;98832.00;;;18.10
19948;BMP180;10135;50.702;7.276;2023-05-10T05:37:27;98837.00;;;18.10
19948;BMP180;10135;50.702;7.276;2023-05-10T05:39:27;98847.00;;;18.10
19948;BMP180;10135;50.702;7.276;2023-05-10T05:41:28;98842.00;;;18.10
19948;BMP180;10135;50.702;7.276;2023-05-10T05:43:28;98844.00;;;18.10
19948;BMP180;10135;50.702;7.276;2023-05-10T05:45:29;98845.00;;;18.10
19948;BMP180;10135;50.702;7.276;2023-05-10T05:47:30;98846.00;;;18.10
19948;BMP180;10135;50.702;7.276;2023-05-10T05:49:30;98847.00;;;18.20
19948;BMP180;10135;50.702;7.276;2023-05-10T05:51:31;98846.00;;;18.20
19948;BMP180;10135;50.702;7.276;2023-05-10T05:53:32;98845.00;;;18.20
19948;BMP180;10135;50.702;7.276;2023-05-10T05:55:33;98859.00;;;18.20
19948;BMP180;10135;50.702;7.276;2023-05-10T05:57:34;98857.00;;;18.20
19948;BMP180;10135;50.702;7.276;2023-05-10T05:59:34;98863.00;;;18.30
19948;BMP180;10135;50.702;7.276;2023-05-10T06:01:35;98860.00;;;18.30
19948;BMP180;10135;50.702;7.276;2023-05-10T06:03:36;98866.00;;;18.30
19948;BMP180;10135;50.702;7.276;2023-05-10T06:05:37;98859.00;;;18.30
19948;BMP180;10135;50.702;7.276;2023-05-10T06:07:37;98858.00;;;18.30
19948;BMP180;10135;50.702;7.276;2023-05-10T06:09:38;98859.00;;;18.40
19948;BMP180;10135;50.702;7.276;2023-05-10T06:11:38;98863.00;;;18.40
19948;BMP180;10135;50.702;7.276;2023-05-10T06:13:39;98861.00;;;18.40
19948;BMP180;10135;50.702;7.276;2023-05-10T06:15:40;98865.00;;;18.40
19948;BMP180;10135;50.702;7.276;2023-05-10T06:17:41;98866.00;;;18.40
19948;BMP180;10135;50.702;7.276;2023-05-10T06:19:41;98868.00;;;18.40
19948;BMP180;10135;50.702;7.276;2023-05-10T06:21:42;98871.00;;;18.50
19948;BMP180;10135;50.702;7.276;2023-05-10T06:23:43;98875.00;;;18.50
19948;BMP180;10135;50.702;7.276;2023-05-10T06:25:44;98869.00;;;18.50
19948;BMP180;10135;50.702;7.276;2023-05-10T06:27:44;98881.00;;;18.50
19948;BMP180;10135;50.702;7.276;2023-05-10T06:29:45;98881.00;;;18.50
19948;BMP180;10135;50.702;7.276;2023-05-10T06:31:46;98886.00;;;18.50
19948;BMP180;10135;50.702;7.276;2023-05-10T06:33:47;98892.00;;;18.50
19948;BMP180;10135;50.702;7.276;2023-05-10T06:35:47;98893.00;;;18.60
19948;BMP180;10135;50.702;7.276;2023-05-10T06:37:48;98891.00;;;18.60
19948;BMP180;10135;50.702;7.276;2023-05-10T06:39:49;98884.00;;;18.60
19948;BMP180;10135;50.702;7.276;2023-05-10T06:41:50;98894.00;;;18.70
19948;BMP180;10135;50.702;7.276;2023-05-10T06:43:50;98889.00;;;18.70
19948;BMP180;10135;50.702;7.276;2023-05-10T06:45:51;98890.00;;;18.70
19948;BMP180;10135;50.702;7.276;2023-05-10T06:47:52;98894.00;;;18.70
19948;BMP180;10135;50.702;7.276;2023-05-10T06:49:53;98899.00;;;18.70
19948;BMP180;10135;50.702;7.276;2023-05-10T06:51:56;98897.00;;;18.80
19948;BMP180;10135;50.702;7.276;2023-05-10T06:53:56;98902.00;;;18.80
19948;BMP180;10135;50.702;7.276;2023-05-10T06:55:57;98901.00;;;18.80
19948;BMP180;10135;50.702;7.276;2023-05-10T06:57:57;98905.00;;;18.80
19948;BMP180;10135;50.702;7.276;2023-05-10T06:59:58;98903.00;;;18.80
19948;BMP180;10135;50.702;7.276;2023-05-10T07:01:59;98904.00;;;18.80
19948;BMP180;10135;50.702;7.276;2023-05-10T07:04:00;98908.00;;;18.90
19948;BMP180;10135;50.702;7.276;2023-05-10T07:06:04;98903.00;;;18.90
19948;BMP180;10135;50.702;7.276;2023-05-10T07:08:05;98901.00;;;18.90
19948;BMP180;10135;50.702;7.276;2023-05-10T07:10:06;98907.00;;;18.90
19948;BMP180;10135;50.702;7.276;2023-05-10T07:12:07;98911.00;;;18.90
19948;BMP180;10135;50.702;7.276;2023-05-10T07:14:08;98908.00;;;18.80
19948;BMP180;10135;50.702;7.276;2023-05-10T07:16:08;98911.00;;;18.80
19948;BMP180;10135;50.702;7.276;2023-05-10T07:18:09;98914.00;;;18.80
19948;BMP180;10135;50.702;7.276;2023-05-10T07:20:10;98910.00;;;18.80
19948;BMP180;10135;50.702;7.276;2023-05-10T07:22:11;98919.00;;;18.80
19948;BMP180;10135;50.702;7.276;2023-05-10T07:24:12;98913.00;;;18.80
19948;BMP180;10135;50.702;7.276;2023-05-10T07:26:13;98921.00;;;18.80
19948;BMP180;10135;50.702;7.276;2023-05-10T07:28:15;98921.00;;;18.80
19948;BMP180;10135;50.702;7.276;2023-05-10T07:30:16;98920.00;;;18.80
19948;BMP180;10135;50.702;7.276;2023-05-10T07:32:17;98920.00;;;18.80
19948;BMP180;10135;50.702;7.276;2023-05-10T07:34:17;98923.00;;;18.80
19948;BMP180;10135;50.702;7.276;2023-05-10T07:36:18;98924.00;;;18.80
19948;BMP180;10135;50.702;7.276;2023-05-10T07:38:19;98927.00;;;18.80
19948;BMP180;10135;50.702;7.276;2023-05-10T07:40:20;98922.00;;;18.80
19948;BMP180;10135;50.702;7.276;2023-05-10T07:42:20;98931.00;;;18.80
19948;BMP180;10135;50.702;7.276;2023-05-10T07:44:21;98931.00;;;18.80
19948;BMP180;10135;50.702;7.276;2023-05-10T07:46:22;98928.00;;;18.80
19948;BMP180;10135;50.702;7.276;2023-05-10T07:48:23;98932.00;;;18.80
19948;BMP180;10135;50.702;7.276;2023-05-10T07:50:23;98934.00;;;18.80
19948;BMP180;10135;50.702;7.276;2023-05-10T07:52:24;98939.00;;;18.80
19948;BMP180;10135;50.702;7.276;2023-05-10T07:54:24;98937.00;;;18.80
19948;BMP180;10135;50.702;7.276;2023-05-10T07:56:28;98943.00;;;18.80
19948;BMP180;10135;50.702;7.276;2023-05-10T07:58:32;98937.00;;;18.80
19948;BMP180;10135;50.702;7.276;2023-05-10T08:00:33;98937.00;;;18.80
19948;BMP180;10135;50.702;7.276;2023-05-10T08:02:35;98939.00;;;18.90
19948;BMP180;10135;50.702;7.276;2023-05-10T08:04:36;98946.00;;;18.90
19948;BMP180;10135;50.702;7.276;2023-05-10T08:06:36;98941.00;;;18.90
19948;BMP180;10135;50.702;7.276;2023-05-10T08:08:37;98945.00;;;18.90
19948;BMP180;10135;50.702;7.276;2023-05-10T08:10:38;98941.00;;;19.00
19948;BMP180;10135;50.702;7.276;2023-05-10T08:12:39;98945.00;;;19.00
19948;BMP180;10135;50.702;7.276;2023-05-10T08:14:39;98937.00;;;19.00
19948;BMP180;10135;50.702;7.276;2023-05-10T08:16:41;98940.00;;;19.00
19948;BMP180;10135;50.702;7.276;2023-05-10T08:25:29;98943.00;;;19.00
19948;BMP180;10135;50.702;7.276;2023-05-10T08:27:29;98943.00;;;19.00
19948;BMP180;10135;50.702;7.276;2023-05-10T08:29:30;98944.00;;;19.00
19948;BMP180;10135;50.702;7.276;2023-05-10T08:31:31;98946.00;;;19.00
19948;BMP180;10135;50.702;7.276;2023-05-10T08:33:31;98946.00;;;19.00
19948;BMP180;10135;50.702;7.276;2023-05-10T08:35:32;98944.00;;;19.10
19948;BMP180;10135;50.702;7.276;2023-05-10T08:37:34;98949.00;;;19.10
19948;BMP180;10135;50.702;7.276;2023-05-10T08:39:35;98941.00;;;19.10
19948;BMP180;10135;50.702;7.276;2023-05-10T08:41:39;98954.00;;;19.10
19948;BMP180;10135;50.702;7.276;2023-05-10T08:43:41;98954.00;;;19.20
19948;BMP180;10135;50.702;7.276;2023-05-10T08:45:46;98957.00;;;19.20
19948;BMP180;10135;50.702;7.276;2023-05-10T08:47:51;98955.00;;;19.20
19948;BMP180;10135;50.702;7.276;2023-05-10T08:49:54;98949.00;;;19.20
19948;BMP180;10135;50.702;7.276;2023-05-10T08:51:56;98960.00;;;19.30
19948;BMP180;10135;50.702;7.276;2023-05-10T08:54:04;98958.00;;;19.30
19948;BMP180;10135;50.702;7.276;2023-05-10T08:56:06;98964.00;;;19.30
19948;BMP180;10135;50.702;7.276;2023-05-10T08:58:09;98956.00;;;19.30
19948;BMP180;10135;50.702;7.276;2023-05-10T09:00:11;98968.00;;;19.30
19948;BMP180;10135;50.702;7.276;2023-05-10T09:02:14;98964.00;;;19.30
19948;BMP180;10135;50.702;7.276;2023-05-10T09:04:16;98957.00;;;19.30
19948;BMP180;10135;50.702;7.276;2023-05-10T09:06:17;98966.00;;;19.30
19948;BMP180;10135;50.702;7.276;2023-05-10T09:08:19;98965.00;;;19.30
19948;BMP180;10135;50.702;7.276;2023-05-10T09:10:21;98972.00;;;19.30
19948;BMP180;10135;50.702;7.276;2023-05-10T09:12:23;98968.00;;;19.20
19948;BMP180;10135;50.702;7.276;2023-05-10T09:14:25;98975.00;;;19.20
19948;BMP180;10135;50.702;7.276;2023-05-10T09:16:26;98975.00;;;19.20
19948;BMP180;10135;50.702;7.276;2023-05-10T09:18:27;98975.00;;;19.20
19948;BMP180;10135;50.702;7.276;2023-05-10T09:20:28;98978.00;;;19.10
19948;BMP180;10135;50.702;7.276;2023-05-10T09:22:29;98979.00;;;19.10
19948;BMP180;10135;50.702;7.276;2023-05-10T09:24:30;98988.00;;;19.10
19948;BMP180;10135;50.702;7.276;2023-05-10T09:26:31;98998.00;;;19.10
19948;BMP180;10135;50.702;7.276;2023-05-10T09:28:34;98985.00;;;19.10
19948;BMP180;10135;50.702;7.276;2023-05-10T09:30:35;98989.00;;;19.00
19948;BMP180;10135;50.702;7.276;2023-05-10T09:32:47;98992.00;;;18.90
19948;BMP180;10135;50.702;7.276;2023-05-10T09:34:49;99001.00;;;18.90
19948;BMP180;10135;50.702;7.276;2023-05-10T09:36:59;99009.00;;;18.80
19948;BMP180;10135;50.702;7.276;2023-05-10T09:39:08;99006.00;;;18.70
19948;BMP180;10135;50.702;7.276;2023-05-10T09:41:19;99010.00;;;18.60
19948;BMP180;10135;50.702;7.276;2023-05-10T09:43:21;99009.00;;;18.60
19948;BMP180;10135;50.702;7.276;2023-05-10T09:45:24;99013.00;;;18.60
19948;BMP180;10135;50.702;7.276;2023-05-10T09:47:25;99012.00;;;18.60
19948;BMP180;10135;50.702;7.276;2023-05-10T09:49:26;99013.00;;;18.50
19948;BMP180;10135;50.702;7.276;2023-05-10T09:51:27;99019.00;;;18.60
19948;BMP180;10135;50.702;7.276;2023-05-10T09:53:28;99021.00;;;18.60
19948;BMP180;10135;50.702;7.276;2023-05-10T09:55:42;99023.00;;;18.60
19948;BMP180;10135;50.702;7.276;2023-05-10T09:57:48;99026.00;;;18.60
19948;BMP180;10135;50.702;7.276;2023-05-10T09:59:50;99024.00;;;18.60
19948;BMP180;10135;50.702;7.276;2023-05-10T10:01:52;99026.00;;;18.60
19948;BMP180;10135;50.702;7.276;2023-05-10T10:03:53;99027.00;;;18.70
19948;BMP180;10135;50.702;7.276;2023-05-10T10:05:54;99027.00;;;18.70
19948;BMP180;10135;50.702;7.276;2023-05-10T10:08:01;99022.00;;;18.70
19948;BMP180;10135;50.702;7.276;2023-05-10T10:10:03;99022.00;;;18.80
19948;BMP180;10135;50.702;7.276;2023-05-10T10:12:05;99022.00;;;18.80
19948;BMP180;10135;50.702;7.276;2023-05-10T10:14:06;99020.00;;;18.90
19948;BMP180;10135;50.702;7.276;2023-05-10T10:16:08;99022.00;;;19.00
19948;BMP180;10135;50.702;7.276;2023-05-10T10:18:13;99020.00;;;19.00
19948;BMP180;10135;50.702;7.276;2023-05-10T10:20:17;99009.00;;;19.10
19948;BMP180;10135;50.702;7.276;2023-05-10T10:22:18;99017.00;;;19.20
19948;BMP180;10135;50.702;7.276;2023-05-10T10:24:18;99017.00;;;19.20
19948;BMP180;10135;50.702;7.276;2023-05-10T10:26:20;99020.00;;;19.30
19948;BMP180;10135;50.702;7.276;2023-05-10T10:31:34;99011.00;;;19.40
19948;BMP180;10135;50.702;7.276;2023-05-10T10:34:00;99018.00;;;19.50
19948;BMP180;10135;50.702;7.276;2023-05-10T10:36:04;99015.00;;;19.70
19948;BMP180;10135;50.702;7.276;2023-05-10T10:38:08;99015.00;;;19.80
19948;BMP180;10135;50.702;7.276;2023-05-10T10:40:31;99014.00;;;19.90
19948;BMP180;10135;50.702;7.276;2023-05-10T10:42:44;99006.00;;;20.00
19948;BMP180;10135;50.702;7.276;2023-05-10T10:44:46;99013.00;;;20.10
19948;BMP180;10135;50.702;7.276;2023-05-10T10:49:14;99009.00;;;20.10
19948;BMP180;10135;50.702;7.276;2023-05-10T10:51:17;99010.00;;;20.10
19948;BMP180;10135;50.702;7.276;2023-05-10T10:53:18;99011.00;;;20.10
19948;BMP180;10135;50.702;7.276;2023-05-10T10:55:20;99012.00;;;20.10
19948;BMP180;10135;50.702;7.276;2023-05-10T10:57:27;99011.00;;;20.10
19948;BMP180;10135;50.702;7.276;2023-05-10T10:59:28;99016.00;;;20.10
19948;BMP180;10135;50.702;7.276;2023-05-10T11:01:34;99021.00;;;20.00
19948;BMP180;10135;50.702;7.276;2023-05-10T11:03:35;99025.00;;;20.00
19948;BMP180;10135;50.702;7.276;2023-05-10T11:05:49;99030.00;;;19.90
19948;BMP180;10135;50.702;7.276;2023-05-10T11:07:53;99025.00;;;19.90
19948;BMP180;10135;50.702;7.276;2023-05-10T11:09:55;99022.00;;;19.90
19948;BMP180;10135;50.702;7.276;2023-05-10T11:11:56;99031.00;;;19.80
19948;BMP180;10135;50.702;7.276;2023-05-10T11:16:23;99027.00;;;19.70
19948;BMP180;10135;50.702;7.276;2023-05-10T11:18:30;99024.00;;;19.70
19948;BMP180;10135;50.702;7.276;2023-05-10T11:20:39;99023.00;;;19.70
19948;BMP180;10135;50.702;7.276;2023-05-10T11:22:53;99032.00;;;19.60
19948;BMP180;10135;50.702;7.276;2023-05-10T11:25:15;99037.00;;;19.60
19948;BMP180;10135;50.702;7.276;2023-05-10T11:29:52;99041.00;;;19.70
19948;BMP180;10135;50.702;7.276;2023-05-10T11:31:59;99040.00;;;19.70
19948;BMP180;10135;50.702;7.276;2023-05-10T11:34:29;99036.00;;;19.60
19948;BMP180;10135;50.702;7.276;2023-05-10T11:37:34;99049.00;;;19.70
19948;BMP180;10135;50.702;7.276;2023-05-10T11:39:45;99047.00;;;19.70
19948;BMP180;10135;50.702;7.276;2023-05-10T11:41:49;99054.00;;;19.70
19948;BMP180;10135;50.702;7.276;2023-05-10T11:43:52;99050.00;;;19.70
19948;BMP180;10135;50.702;7.276;2023-05-10T11:45:54;99044.00;;;19.70
19948;BMP180;10135;50.702;7.276;2023-05-10T11:47:57;99048.00;;;19.70
19948;BMP180;10135;50.702;7.276;2023-05-10T11:49:58;99047.00;;;19.70
19948;BMP180;10135;50.702;7.276;2023-05-10T11:52:08;99044.00;;;19.70
19948;BMP180;10135;50.702;7.276;2023-05-10T11:54:11;99044.00;;;19.70
19948;BMP180;10135;50.702;7.276;2023-05-10T11:56:11;99052.00;;;19.70
19948;BMP180;10135;50.702;7.276;2023-05-10T11:58:12;99044.00;;;19.70
19948;BMP180;10135;50.702;7.276;2023-05-10T12:00:14;99042.00;;;19.80
19948;BMP180;10135;50.702;7.276;2023-05-10T12:02:15;99042.00;;;19.80
19948;BMP180;10135;50.702;7.276;2023-05-10T12:04:15;99050.00;;;19.80
19948;BMP180;10135;50.702;7.276;2023-05-10T12:06:18;99047.00;;;19.80
19948;BMP180;10135;50.702;7.276;2023-05-10T12:08:22;99049.00;;;19.90
19948;BMP180;10135;50.702;7.276;2023-05-10T12:10:26;99047.00;;;19.90
19948;BMP180;10135;50.702;7.276;2023-05-10T12:12:27;99042.00;;;20.00
19948;BMP180;10135;50.702;7.276;2023-05-10T12:14:36;99052.00;;;20.00
19948;BMP180;10135;50.702;7.276;2023-05-10T12:16:37;99053.00;;;20.00
19948;BMP180;10135;50.702;7.276;2023-05-10T12:18:40;99054.00;;;20.00
19948;BMP180;10135;50.702;7.276;2023-05-10T12:20:41;99053.00;;;20.10
19948;BMP180;10135;50.702;7.276;2023-05-10T12:22:49;99057.00;;;20.10
19948;BMP180;10135;50.702;7.276;2023-05-10T12:24:50;99054.00;;;20.10
19948;BMP180;10135;50.702;7.276;2023-05-10T12:26:51;99060.00;;;20.10
19948;BMP180;10135;50.702;7.276;2023-05-10T12:28:54;99065.00;;;20.10
19948;BMP180;10135;50.702;7.276;2023-05-10T12:30:54;99062.00;;;20.10
19948;BMP180;10135;50.702;7.276;2023-05-10T12:33:02;99061.00;;;20.10
19948;BMP180;10135;50.702;7.276;2023-05-10T12:35:04;99055.00;;;20.10
19948;BMP180;10135;50.702;7.276;2023-05-10T12:37:05;99069.00;;;20.10
19948;BMP180;10135;50.702;7.276;2023-05-10T12:39:05;99065.00;;;20.10
19948;BMP180;10135;50.702;7.276;2023-05-10T12:41:08;99070.00;;;20.10
19948;BMP180;10135;50.702;7.276;2023-05-10T12:43:09;99064.00;;;20.10
19948;BMP180;10135;50.702;7.276;2023-05-10T12:45:11;99074.00;;;20.10
19948;BMP180;10135;50.702;7.276;2023-05-10T12:47:11;99073.00;;;20.00
19948;BMP180;10135;50.702;7.276;2023-05-10T12:49:12;99071.00;;;20.00
19948;BMP180;10135;50.702;7.276;2023-05-10T12:51:13;99070.00;;;20.00
19948;BMP180;10135;50.702;7.276;2023-05-10T12:53:16;99082.00;;;20.00
19948;BMP180;10135;50.702;7.276;2023-05-10T12:55:17;99078.00;;;20.00
19948;BMP180;10135;50.702;7.276;2023-05-10T12:57:18;99081.00;;;19.90
19948;BMP180;10135;50.702;7.276;2023-05-10T12:59:18;99079.00;;;19.90
19948;BMP180;10135;50.702;7.276;2023-05-10T13:01:19;99078.00;;;19.80
19948;BMP180;10135;50.702;7.276;2023-05-10T13:03:20;99079.00;;;19.80
19948;BMP180;10135;50.702;7.276;2023-05-10T13:05:20;99083.00;;;19.80
19948;BMP180;10135;50.702;7.276;2023-05-10T13:07:21;99081.00;;;19.80
19948;BMP180;10135;50.702;7.276;2023-05-10T13:09:22;99078.00;;;19.80
19948;BMP180;10135;50.702;7.276;2023-05-10T13:11:23;99087.00;;;19.80
19948;BMP180;10135;50.702;7.276;2023-05-10T13:13:24;99082.00;;;19.80
19948;BMP180;10135;50.702;7.276;2023-05-10T13:15:25;99090.00;;;19.80
19948;BMP180;10135;50.702;7.276;2023-05-10T13:17:26;99086.00;;;19.90
19948;BMP180;10135;50.702;7.276;2023-05-10T13:19:27;99080.00;;;19.90
19948;BMP180;10135;50.702;7.276;2023-05-10T13:21:28;99083.00;;;20.00
19948;BMP180;10135;50.702;7.276;2023-05-10T13:23:28;99079.00;;;20.00
19948;BMP180;10135;50.702;7.276;2023-05-10T13:25:29;99082.00;;;20.00
19948;BMP180;10135;50.702;7.276;2023-05-10T13:27:30;99075.00;;;20.10
19948;BMP180;10135;50.702;7.276;2023-05-10T13:29:31;99078.00;;;20.20
19948;BMP180;10135;50.702;7.276;2023-05-10T13:31:33;99078.00;;;20.20
19948;BMP180;10135;50.702;7.276;2023-05-10T13:33:34;99072.00;;;20.20
19948;BMP180;10135;50.702;7.276;2023-05-10T13:35:34;99079.00;;;20.30
19948;BMP180;10135;50.702;7.276;2023-05-10T13:37:35;99076.00;;;20.30
19948;BMP180;10135;50.702;7.276;2023-05-10T13:39:37;99080.00;;;20.40
19948;BMP180;10135;50.702;7.276;2023-05-10T13:41:38;99078.00;;;20.40
19948;BMP180;10135;50.702;7.276;2023-05-10T13:43:39;99086.00;;;20.40
19948;BMP180;10135;50.702;7.276;2023-05-10T13:45:39;99081.00;;;20.50
19948;BMP180;10135;50.702;7.276;2023-05-10T13:47:40;99088.00;;;20.40
19948;BMP180;10135;50.702;7.276;2023-05-10T13:49:41;99086.00;;;20.40
19948;BMP180;10135;50.702;7.276;2023-05-10T13:51:43;99090.00;;;20.40
19948;BMP180;10135;50.702;7.276;2023-05-10T13:53:43;99087.00;;;20.40
19948;BMP180;10135;50.702;7.276;2023-05-10T13:55:44;99082.00;;;20.40
19948;BMP180;10135;50.702;7.276;2023-05-10T13:57:45;99081.00;;;20.40
19948;BMP180;10135;50.702;7.276;2023-05-10T13:59:45;99080.00;;;20.40
19948;BMP180;10135;50.702;7.276;2023-05-10T14:01:46;99082.00;;;20.30
19948;BMP180;10135;50.702;7.276;2023-05-10T14:03:47;99078.00;;;20.30
19948;BMP180;10135;50.702;7.276;2023-05-10T14:05:48;99080.00;;;20.30
19948;BMP180;10135;50.702;7.276;2023-05-10T14:07:50;99077.00;;;20.20
19948;BMP180;10135;50.702;7.276;2023-05-10T14:09:51;99073.00;;;20.20
19948;BMP180;10135;50.702;7.276;2023-05-10T14:11:51;99076.00;;;20.20
19948;BMP180;10135;50.702;7.276;2023-05-10T14:13:52;99083.00;;;20.20
19948;BMP180;10135;50.702;7.276;2023-05-10T14:15:54;99086.00;;;20.20
19948;BMP180;10135;50.702;7.276;2023-05-10T14:17:54;99082.00;;;20.10
19948;BMP180;10135;50.702;7.276;2023-05-10T14:19:55;99085.00;;;20.10
19948;BMP180;10135;50.702;7.276;2023-05-10T14:21:56;99087.00;;;20.10
19948;BMP180;10135;50.702;7.276;2023-05-10T14:23:57;99084.00;;;20.10
19948;BMP180;10135;50.702;7.276;2023-05-10T14:25:57;99084.00;;;20.00
19948;BMP180;10135;50.702;7.276;2023-05-10T14:27:58;99078.00;;;20.00
19948;BMP180;10135;50.702;7.276;2023-05-10T14:29:59;99090.00;;;20.00
19948;BMP180;10135;50.702;7.276;2023-05-10T14:31:59;99089.00;;;20.00
19948;BMP180;10135;50.702;7.276;2023-05-10T14:34:00;99090.00;;;20.00
19948;BMP180;10135;50.702;7.276;2023-05-10T14:36:01;99093.00;;;19.90
19948;BMP180;10135;50.702;7.276;2023-05-10T14:38:03;99099.00;;;19.90
19948;BMP180;10135;50.702;7.276;2023-05-10T14:40:06;99103.00;;;19.90
19948;BMP180;10135;50.702;7.276;2023-05-10T14:42:06;99099.00;;;19.80
19948;BMP180;10135;50.702;7.276;2023-05-10T14:44:07;99094.00;;;19.80
19948;BMP180;10135;50.702;7.276;2023-05-10T14:46:08;99094.00;;;19.80
19948;BMP180;10135;50.702;7.276;2023-05-10T14:48:09;99096.00;;;19.70
19948;BMP180;10135;50.702;7.276;2023-05-10T14:50:12;99100.00;;;19.70
19948;BMP180;10135;50.702;7.276;2023-05-10T14:52:13;99090.00;;;19.60
19948;BMP180;10135;50.702;7.276;2023-05-10T14:54:14;99100.00;;;19.60
19948;BMP180;10135;50.702;7.276;2023-05-10T14:56:15;99088.00;;;19.50
19948;BMP180;10135;50.702;7.276;2023-05-10T14:58:16;99092.00;;;19.50
19948;BMP180;10135;50.702;7.276;2023-05-10T15:00:17;99092.00;;;19.50
19948;BMP180;10135;50.702;7.276;2023-05-10T15:02:19;99099.00;;;19.50
19948;BMP180;10135;50.702;7.276;2023-05-10T15:04:20;99098.00;;;19.50
19948;BMP180;10135;50.702;7.276;2023-05-10T15:06:31;99094.00;;;19.40
19948;BMP180;10135;50.702;7.276;2023-05-10T15:08:32;99096.00;;;19.50
19948;BMP180;10135;50.702;7.276;2023-05-10T15:10:32;99099.00;;;19.50
19948;BMP180;10135;50.702;7.276;2023-05-10T15:12:33;99098.00;;;19.50
19948;BMP180;10135;50.702;7.276;2023-05-10T15:14:34;99096.00;;;19.50
19948;BMP180;10135;50.702;7.276;2023-05-10T15:16:36;99103.00;;;19.50
19948;BMP180;10135;50.702;7.276;2023-05-10T15:18:37;99108.00;;;19.60
19948;BMP180;10135;50.702;7.276;2023-05-10T15:20:38;99109.00;;;19.60
19948;BMP180;10135;50.702;7.276;2023-05-10T15:22:39;99103.00;;;19.60
19948;BMP180;10135;50.702;7.276;2023-05-10T15:24:39;99108.00;;;19.70
19948;BMP180;10135;50.702;7.276;2023-05-10T15:26:40;99099.00;;;19.70
19948;BMP180;10135;50.702;7.276;2023-05-10T15:28:41;99097.00;;;19.80
19948;BMP180;10135;50.702;7.276;2023-05-10T15:30:42;99099.00;;;19.80
19948;BMP180;10135;50.702;7.276;2023-05-10T15:32:42;99096.00;;;19.80
19948;BMP180;10135;50.702;7.276;2023-05-10T15:34:43;99101.00;;;19.90
19948;BMP180;10135;50.702;7.276;2023-05-10T15:36:44;99099.00;;;19.90
19948;BMP180;10135;50.702;7.276;2023-05-10T15:38:45;99098.00;;;19.90
19948;BMP180;10135;50.702;7.276;2023-05-10T15:40:46;99096.00;;;20.00
19948;BMP180;10135;50.702;7.276;2023-05-10T15:42:47;99095.00;;;20.00
19948;BMP180;10135;50.702;7.276;2023-05-10T15:44:47;99093.00;;;20.10
19948;BMP180;10135;50.702;7.276;2023-05-10T15:46:50;99097.00;;;20.10
19948;BMP180;10135;50.702;7.276;2023-05-10T15:48:52;99094.00;;;20.10
19948;BMP180;10135;50.702;7.276;2023-05-10T15:50:52;99098.00;;;20.20
19948;BMP180;10135;50.702;7.276;2023-05-10T15:52:53;99103.00;;;20.20
19948;BMP180;10135;50.702;7.276;2023-05-10T15:54:54;99105.00;;;20.20
19948;BMP180;10135;50.702;7.276;2023-05-10T15:56:55;99101.00;;;20.30
19948;BMP180;10135;50.702;7.276;2023-05-10T15:58:55;99105.00;;;20.30
19948;BMP180;10135;50.702;7.276;2023-05-10T16:00:56;99102.00;;;20.40
19948;BMP180;10135;50.702;7.276;2023-05-10T16:02:57;99105.00;;;20.40
19948;BMP180;10135;50.702;7.276;2023-05-10T16:04:57;99104.00;;;20.40
19948;BMP180;10135;50.702;7.276;2023-05-10T16:06:58;99109.00;;;20.50
19948;BMP180;10135;50.702;7.276;2023-05-10T16:08:59;99118.00;;;20.60
19948;BMP180;10135;50.702;7.276;2023-05-10T16:11:00;99121.00;;;20.60
19948;BMP180;10135;50.702;7.276;2023-05-10T16:13:00;99115.00;;;20.60
19948;BMP180;10135;50.702;7.276;2023-05-10T16:15:04;99120.00;;;20.70
19948;BMP180;10135;50.702;7.276;2023-05-10T16:17:05;99114.00;;;20.70
19948;BMP180;10135;50.702;7.276;2023-05-10T16:19:05;99113.00;;;20.70
19948;BMP180;10135;50.702;7.276;2023-05-10T16:21:06;99118.00;;;20.70
19948;BMP180;10135;50.702;7.276;2023-05-10T16:23:07;99124.00;;;20.80
19948;BMP180;10135;50.702;7.276;2023-05-10T16:25:08;99118.00;;;20.80
19948;BMP180;10135;50.702;7.276;2023-05-10T16:27:09;99128.00;;;20.80
19948;BMP180;10135;50.702;7.276;2023-05-10T16:29:11;99126.00;;;20.80
19948;BMP180;10135;50.702;7.276;2023-05-10T16:31:12;99134.00;;;20.70
19948;BMP180;10135;50.702;7.276;2023-05-10T16:33:13;99127.00;;;20.70
19948;BMP180;10135;50.702;7.276;2023-05-10T16:35:14;99134.00;;;20.60
19948;BMP180;10135;50.702;7.276;2023-05-10T16:37:15;99134.00;;;20.60
19948;BMP180;10135;50.702;7.276;2023-05-10T16:39:16;99129.00;;;20.50
19948;BMP180;10135;50.702;7.276;2023-05-10T16:41:17;99124.00;;;20.50
19948;BMP180;10135;50.702;7.276;2023-05-10T16:43:17;99131.00;;;20.40
19948;BMP180;10135;50.702;7.276;2023-05-10T16:45:18;99126.00;;;20.40
19948;BMP180;10135;50.702;7.276;2023-05-10T16:47:19;99129.00;;;20.40
19948;BMP180;10135;50.702;7.276;2023-05-10T16:49:20;99135.00;;;20.30
19948;BMP180;10135;50.702;7.276;2023-05-10T16:51:20;99134.00;;;20.30
19948;BMP180;10135;50.702;7.276;2023-05-10T16:53:21;99138.00;;;20.20
19948;BMP180;10135;50.702;7.276;2023-05-10T16:55:22;99128.00;;;20.20
19948;BMP180;10135;50.702;7.276;2023-05-10T16:57:23;99125.00;;;20.20
19948;BMP180;10135;50.702;7.276;2023-05-10T16:59:24;99133.00;;;20.10
19948;BMP180;10135;50.702;7.276;2023-05-10T17:01:24;99130.00;;;20.10